sensor_id;sensor_type;location;lat;lon;timestamp;temperature;humidity
32293;DHT22;43233;48.608;8.838;2023-06-24T00:00:09;15.70;66.30
32293;DHT22;43233;48.608;8.838;2023-06-24T00:02:37;15.60;66.20
32293;DHT22;43233;48.608;8.838;2023-06-24T00:05:06;15.60;67.50
32293;DHT22;43233;48.608;8.838;2023-06-24T00:07:33;15.50;67.00
32293;DHT22;43233;48.608;8.838;2023-06-24T00:10:11;15.40;67.60
32293;DHT22;43233;48.608;8.838;2023-06-24T00:12:37;15.40;69.30
32293;DHT22;43233;48.608;8.838;2023-06-24T00:15:05;15.40;69.50
32293;DHT22;43233;48.608;8.838;2023-06-24T00:17:31;15.40;69.50
32293;DHT22;43233;48.608;8.838;2023-06-24T00:19:57;15.50;68.10
32293;DHT22;43233;48.608;8.838;2023-06-24T00:22:22;15.50;67.70
32293;DHT22;43233;48.608;8.838;2023-06-24T00:24:48;15.50;68.20
32293;DHT22;43233;48.608;8.838;2023-06-24T00:27:13;15.50;69.20
32293;DHT22;43233;48.608;8.838;2023-06-24T00:29:39;15.50;69.90
32293;DHT22;43233;48.608;8.838;2023-06-24T00:32:05;15.50;68.20
32293;DHT22;43233;48.608;8.838;2023-06-24T00:34:31;15.40;67.50
32293;DHT22;43233;48.608;8.838;2023-06-24T00:36:56;15.30;68.40
32293;DHT22;43233;48.608;8.838;2023-06-24T00:39:22;15.20;68.80
32293;DHT22;43233;48.608;8.838;2023-06-24T00:41:48;15.20;67.50
32293;DHT22;43233;48.608;8.838;2023-06-24T00:44:14;15.20;69.20
32293;DHT22;43233;48.608;8.838;2023-06-24T00:46:39;15.30;69.30
32293;DHT22;43233;48.608;8.838;2023-06-24T00:49:05;15.20;68.90
32293;DHT22;43233;48.608;8.838;2023-06-24T00:51:32;15.30;68.60
32293;DHT22;43233;48.608;8.838;2023-06-24T00:54:00;15.20;68.10
32293;DHT22;43233;48.608;8.838;2023-06-24T00:56:29;15.20;68.00
32293;DHT22;43233;48.608;8.838;2023-06-24T00:58:58;15.20;67.20
32293;DHT22;43233;48.608;8.838;2023-06-24T01:01:28;15.20;67.20
32293;DHT22;43233;48.608;8.838;2023-06-24T01:04:01;15.20;67.00
32293;DHT22;43233;48.608;8.838;2023-06-24T01:06:28;15.10;67.40
32293;DHT22;43233;48.608;8.838;2023-06-24T01:08:55;15.10;67.40
32293;DHT22;43233;48.608;8.838;2023-06-24T01:11:22;15.10;67.10
32293;DHT22;43233;48.608;8.838;2023-06-24T01:13:48;15.10;68.10
32293;DHT22;43233;48.608;8.838;2023-06-24T01:16:31;15.00;68.10
32293;DHT22;43233;48.608;8.838;2023-06-24T01:19:11;15.00;68.80
32293;DHT22;43233;48.608;8.838;2023-06-24T01:24:36;15.10;69.30
32293;DHT22;43233;48.608;8.838;2023-06-24T01:33:17;15.00;70.10
32293;DHT22;43233;48.608;8.838;2023-06-24T01:35:47;15.00;70.50
32293;DHT22;43233;48.608;8.838;2023-06-24T01:38:22;15.00;67.50
32293;DHT22;43233;48.608;8.838;2023-06-24T01:40:48;14.90;68.30
32293;DHT22;43233;48.608;8.838;2023-06-24T01:43:16;14.90;68.30
32293;DHT22;43233;48.608;8.838;2023-06-24T01:45:46;14.90;67.80
32293;DHT22;43233;48.608;8.838;2023-06-24T01:48:19;14.90;67.30
32293;DHT22;43233;48.608;8.838;2023-06-24T01:51:03;14.90;67.00
32293;DHT22;43233;48.608;8.838;2023-06-24T01:53:38;14.90;67.50
32293;DHT22;43233;48.608;8.838;2023-06-24T01:56:10;14.90;67.10
32293;DHT22;43233;48.608;8.838;2023-06-24T01:58:36;14.90;67.10
32293;DHT22;43233;48.608;8.838;2023-06-24T02:01:03;14.90;67.30
32293;DHT22;43233;48.608;8.838;2023-06-24T02:03:31;14.80;67.70
32293;DHT22;43233;48.608;8.838;2023-06-24T02:05:59;14.80;67.80
32293;DHT22;43233;48.608;8.838;2023-06-24T02:08:26;14.80;67.70
32293;DHT22;43233;48.608;8.838;2023-06-24T02:10:55;14.80;67.60
32293;DHT22;43233;48.608;8.838;2023-06-24T02:13:22;14.80;67.50
32293;DHT22;43233;48.608;8.838;2023-06-24T02:15:49;14.70;67.70
32293;DHT22;43233;48.608;8.838;2023-06-24T02:18:16;14.70;67.80
32293;DHT22;43233;48.608;8.838;2023-06-24T02:20:43;14.60;67.30
32293;DHT22;43233;48.608;8.838;2023-06-24T02:23:11;14.60;67.40
32293;DHT22;43233;48.608;8.838;2023-06-24T02:25:38;14.60;67.50
32293;DHT22;43233;48.608;8.838;2023-06-24T02:28:06;14.60;67.80
32293;DHT22;43233;48.608;8.838;2023-06-24T02:30:34;14.50;68.00
32293;DHT22;43233;48.608;8.838;2023-06-24T02:33:01;14.50;67.90
32293;DHT22;43233;48.608;8.838;2023-06-24T02:35:26;14.50;68.10
32293;DHT22;43233;48.608;8.838;2023-06-24T02:37:52;14.50;68.40
32293;DHT22;43233;48.608;8.838;2023-06-24T02:40:18;14.40;69.00
32293;DHT22;43233;48.608;8.838;2023-06-24T02:42:44;14.40;69.60
32293;DHT22;43233;48.608;8.838;2023-06-24T02:45:10;14.40;70.10
32293;DHT22;43233;48.608;8.838;2023-06-24T02:47:36;14.40;70.10
32293;DHT22;43233;48.608;8.838;2023-06-24T02:50:04;14.50;70.40
32293;DHT22;43233;48.608;8.838;2023-06-24T02:52:31;14.50;70.60
32293;DHT22;43233;48.608;8.838;2023-06-24T02:54:57;14.50;71.10
32293;DHT22;43233;48.608;8.838;2023-06-24T02:57:26;14.50;70.70
32293;DHT22;43233;48.608;8.838;2023-06-24T02:59:52;14.50;71.00
32293;DHT22;43233;48.608;8.838;2023-06-24T03:02:17;14.40;71.10
32293;DHT22;43233;48.608;8.838;2023-06-24T03:04:44;14.40;71.60
32293;DHT22;43233;48.608;8.838;2023-06-24T03:07:10;14.40;72.10
32293;DHT22;43233;48.608;8.838;2023-06-24T03:09:36;14.30;71.60
32293;DHT22;43233;48.608;8.838;2023-06-24T03:12:03;14.30;72.30
32293;DHT22;43233;48.608;8.838;2023-06-24T03:14:28;14.30;72.80
32293;DHT22;43233;48.608;8.838;2023-06-24T03:16:54;14.20;73.00
32293;DHT22;43233;48.608;8.838;2023-06-24T03:19:19;14.20;74.40
32293;DHT22;43233;48.608;8.838;2023-06-24T03:21:45;14.20;75.60
32293;DHT22;43233;48.608;8.838;2023-06-24T03:24:11;14.10;76.20
32293;DHT22;43233;48.608;8.838;2023-06-24T03:26:38;14.10;77.80
32293;DHT22;43233;48.608;8.838;2023-06-24T03:29:05;14.10;78.50
32293;DHT22;43233;48.608;8.838;2023-06-24T03:31:32;14.10;71.70
32293;DHT22;43233;48.608;8.838;2023-06-24T03:33:58;14.10;71.10
32293;DHT22;43233;48.608;8.838;2023-06-24T03:36:24;14.10;71.10
32293;DHT22;43233;48.608;8.838;2023-06-24T03:38:50;14.10;71.20
32293;DHT22;43233;48.608;8.838;2023-06-24T03:41:16;14.10;71.40
32293;DHT22;43233;48.608;8.838;2023-06-24T03:43:42;13.90;72.30
32293;DHT22;43233;48.608;8.838;2023-06-24T03:46:08;13.90;73.70
32293;DHT22;43233;48.608;8.838;2023-06-24T03:48:35;13.90;73.60
32293;DHT22;43233;48.608;8.838;2023-06-24T03:51:00;13.90;73.80
32293;DHT22;43233;48.608;8.838;2023-06-24T03:53:26;14.00;75.50
32293;DHT22;43233;48.608;8.838;2023-06-24T03:55:52;14.00;74.40
32293;DHT22;43233;48.608;8.838;2023-06-24T03:58:17;14.10;75.00
32293;DHT22;43233;48.608;8.838;2023-06-24T04:00:46;14.10;76.70
32293;DHT22;43233;48.608;8.838;2023-06-24T04:03:14;14.20;74.50
32293;DHT22;43233;48.608;8.838;2023-06-24T04:05:41;14.20;75.80
32293;DHT22;43233;48.608;8.838;2023-06-24T04:08:07;14.20;74.90
32293;DHT22;43233;48.608;8.838;2023-06-24T04:10:33;14.20;74.10
32293;DHT22;43233;48.608;8.838;2023-06-24T04:12:58;14.30;75.00
32293;DHT22;43233;48.608;8.838;2023-06-24T04:15:24;14.40;76.00
32293;DHT22;43233;48.608;8.838;2023-06-24T04:17:50;14.40;76.00
32293;DHT22;43233;48.608;8.838;2023-06-24T04:20:15;14.50;76.20
32293;DHT22;43233;48.608;8.838;2023-06-24T04:22:41;14.50;77.80
32293;DHT22;43233;48.608;8.838;2023-06-24T04:25:08;14.60;77.50
32293;DHT22;43233;48.608;8.838;2023-06-24T04:27:34;14.60;77.80
32293;DHT22;43233;48.608;8.838;2023-06-24T04:30:00;14.60;78.30
32293;DHT22;43233;48.608;8.838;2023-06-24T04:32:26;14.60;79.10
32293;DHT22;43233;48.608;8.838;2023-06-24T04:34:52;14.60;81.30
32293;DHT22;43233;48.608;8.838;2023-06-24T04:37:18;14.60;83.80
32293;DHT22;43233;48.608;8.838;2023-06-24T04:39:44;14.70;86.20
32293;DHT22;43233;48.608;8.838;2023-06-24T04:42:09;14.60;72.70
32293;DHT22;43233;48.608;8.838;2023-06-24T04:44:36;14.60;72.90
32293;DHT22;43233;48.608;8.838;2023-06-24T04:47:02;14.60;72.70
32293;DHT22;43233;48.608;8.838;2023-06-24T04:49:28;14.60;72.70
32293;DHT22;43233;48.608;8.838;2023-06-24T04:51:53;14.60;72.80
32293;DHT22;43233;48.608;8.838;2023-06-24T04:54:19;14.70;73.00
32293;DHT22;43233;48.608;8.838;2023-06-24T04:56:45;14.70;72.90
32293;DHT22;43233;48.608;8.838;2023-06-24T04:59:11;14.70;72.90
32293;DHT22;43233;48.608;8.838;2023-06-24T05:01:36;14.80;72.80
32293;DHT22;43233;48.608;8.838;2023-06-24T05:04:02;15.00;71.70
32293;DHT22;43233;48.608;8.838;2023-06-24T05:06:28;15.00;71.40
32293;DHT22;43233;48.608;8.838;2023-06-24T05:08:53;14.90;71.70
32293;DHT22;43233;48.608;8.838;2023-06-24T05:11:19;14.90;71.90
32293;DHT22;43233;48.608;8.838;2023-06-24T05:13:45;15.00;72.30
32293;DHT22;43233;48.608;8.838;2023-06-24T05:16:10;15.00;72.50
32293;DHT22;43233;48.608;8.838;2023-06-24T05:18:36;15.10;72.10
32293;DHT22;43233;48.608;8.838;2023-06-24T05:21:01;15.10;72.10
32293;DHT22;43233;48.608;8.838;2023-06-24T05:23:27;15.10;72.30
32293;DHT22;43233;48.608;8.838;2023-06-24T05:25:53;15.20;72.10
32293;DHT22;43233;48.608;8.838;2023-06-24T05:28:19;15.10;72.30
32293;DHT22;43233;48.608;8.838;2023-06-24T05:30:47;15.20;72.40
32293;DHT22;43233;48.608;8.838;2023-06-24T05:33:13;15.30;72.40
32293;DHT22;43233;48.608;8.838;2023-06-24T05:35:38;15.30;72.00
32293;DHT22;43233;48.608;8.838;2023-06-24T05:38:06;15.40;70.90
32293;DHT22;43233;48.608;8.838;2023-06-24T05:40:31;15.40;70.30
32293;DHT22;43233;48.608;8.838;2023-06-24T05:42:57;15.40;70.20
32293;DHT22;43233;48.608;8.838;2023-06-24T05:45:23;15.40;70.40
32293;DHT22;43233;48.608;8.838;2023-06-24T05:47:48;15.50;70.70
32293;DHT22;43233;48.608;8.838;2023-06-24T05:50:14;15.60;71.30
32293;DHT22;43233;48.608;8.838;2023-06-24T05:52:40;15.70;71.10
32293;DHT22;43233;48.608;8.838;2023-06-24T05:55:05;15.70;71.60
32293;DHT22;43233;48.608;8.838;2023-06-24T05:57:31;15.80;71.40
32293;DHT22;43233;48.608;8.838;2023-06-24T05:59:57;15.90;71.40
32293;DHT22;43233;48.608;8.838;2023-06-24T06:02:22;16.00;71.30
32293;DHT22;43233;48.608;8.838;2023-06-24T06:04:48;16.10;71.00
32293;DHT22;43233;48.608;8.838;2023-06-24T06:07:13;16.20;71.00
32293;DHT22;43233;48.608;8.838;2023-06-24T06:09:39;16.20;70.20
32293;DHT22;43233;48.608;8.838;2023-06-24T06:12:05;16.30;70.10
32293;DHT22;43233;48.608;8.838;2023-06-24T06:14:31;16.40;69.90
32293;DHT22;43233;48.608;8.838;2023-06-24T06:16:57;16.50;69.70
32293;DHT22;43233;48.608;8.838;2023-06-24T06:19:22;16.60;69.70
32293;DHT22;43233;48.608;8.838;2023-06-24T06:21:49;16.70;69.50
32293;DHT22;43233;48.608;8.838;2023-06-24T06:24:15;16.80;69.20
32293;DHT22;43233;48.608;8.838;2023-06-24T06:26:44;16.90;68.80
32293;DHT22;43233;48.608;8.838;2023-06-24T06:29:11;16.90;69.00
32293;DHT22;43233;48.608;8.838;2023-06-24T06:31:37;17.00;68.70
32293;DHT22;43233;48.608;8.838;2023-06-24T06:34:02;17.10;68.60
32293;DHT22;43233;48.608;8.838;2023-06-24T06:36:28;17.20;68.00
32293;DHT22;43233;48.608;8.838;2023-06-24T06:38:54;17.30;67.30
32293;DHT22;43233;48.608;8.838;2023-06-24T06:41:20;17.50;65.20
32293;DHT22;43233;48.608;8.838;2023-06-24T06:43:51;17.50;64.60
32293;DHT22;43233;48.608;8.838;2023-06-24T06:46:16;17.60;64.30
32293;DHT22;43233;48.608;8.838;2023-06-24T06:48:42;17.60;65.10
32293;DHT22;43233;48.608;8.838;2023-06-24T06:51:07;17.70;64.30
32293;DHT22;43233;48.608;8.838;2023-06-24T06:53:33;17.70;63.10
32293;DHT22;43233;48.608;8.838;2023-06-24T06:55:59;17.80;62.80
32293;DHT22;43233;48.608;8.838;2023-06-24T06:58:24;17.90;62.40
32293;DHT22;43233;48.608;8.838;2023-06-24T07:00:50;17.90;61.50
32293;DHT22;43233;48.608;8.838;2023-06-24T07:03:16;18.00;60.10
32293;DHT22;43233;48.608;8.838;2023-06-24T07:05:41;18.10;60.40
32293;DHT22;43233;48.608;8.838;2023-06-24T07:08:07;18.10;60.20
32293;DHT22;43233;48.608;8.838;2023-06-24T07:10:33;18.20;59.80
32293;DHT22;43233;48.608;8.838;2023-06-24T07:12:58;18.30;58.90
32293;DHT22;43233;48.608;8.838;2023-06-24T07:15:25;18.30;57.80
32293;DHT22;43233;48.608;8.838;2023-06-24T07:17:51;18.40;58.00
32293;DHT22;43233;48.608;8.838;2023-06-24T07:20:17;18.50;58.00
32293;DHT22;43233;48.608;8.838;2023-06-24T07:22:43;18.50;57.30
32293;DHT22;43233;48.608;8.838;2023-06-24T07:25:09;18.50;57.40
32293;DHT22;43233;48.608;8.838;2023-06-24T07:27:35;18.60;57.90
32293;DHT22;43233;48.608;8.838;2023-06-24T07:30:01;18.60;58.10
32293;DHT22;43233;48.608;8.838;2023-06-24T07:32:26;18.70;58.00
32293;DHT22;43233;48.608;8.838;2023-06-24T07:34:52;18.70;58.50
32293;DHT22;43233;48.608;8.838;2023-06-24T07:37:17;18.80;58.10
32293;DHT22;43233;48.608;8.838;2023-06-24T07:39:43;18.90;57.90
32293;DHT22;43233;48.608;8.838;2023-06-24T07:42:08;19.00;57.50
32293;DHT22;43233;48.608;8.838;2023-06-24T07:44:34;19.10;57.40
32293;DHT22;43233;48.608;8.838;2023-06-24T07:47:02;19.10;56.40
32293;DHT22;43233;48.608;8.838;2023-06-24T07:49:28;19.10;55.70
32293;DHT22;43233;48.608;8.838;2023-06-24T07:51:53;19.20;55.50
32293;DHT22;43233;48.608;8.838;2023-06-24T07:54:19;19.20;54.40
32293;DHT22;43233;48.608;8.838;2023-06-24T07:56:45;19.30;53.70
32293;DHT22;43233;48.608;8.838;2023-06-24T07:59:10;19.40;53.50
32293;DHT22;43233;48.608;8.838;2023-06-24T08:01:36;19.40;54.20
32293;DHT22;43233;48.608;8.838;2023-06-24T08:04:01;19.50;53.10
32293;DHT22;43233;48.608;8.838;2023-06-24T08:06:28;19.60;52.30
32293;DHT22;43233;48.608;8.838;2023-06-24T08:08:53;19.70;50.40
32293;DHT22;43233;48.608;8.838;2023-06-24T08:11:19;19.80;49.40
32293;DHT22;43233;48.608;8.838;2023-06-24T08:13:47;19.90;49.90
32293;DHT22;43233;48.608;8.838;2023-06-24T08:16:14;19.90;47.60
32293;DHT22;43233;48.608;8.838;2023-06-24T08:18:40;19.90;48.90
32293;DHT22;43233;48.608;8.838;2023-06-24T08:21:05;20.00;46.80
32293;DHT22;43233;48.608;8.838;2023-06-24T08:23:31;20.00;46.30
32293;DHT22;43233;48.608;8.838;2023-06-24T08:25:57;20.10;44.60
32293;DHT22;43233;48.608;8.838;2023-06-24T08:28:22;20.10;44.10
32293;DHT22;43233;48.608;8.838;2023-06-24T08:31:25;20.10;44.20
32293;DHT22;43233;48.608;8.838;2023-06-24T08:33:54;20.20;44.10
32293;DHT22;43233;48.608;8.838;2023-06-24T08:36:23;20.30;45.80
32293;DHT22;43233;48.608;8.838;2023-06-24T08:38:49;20.40;46.50
32293;DHT22;43233;48.608;8.838;2023-06-24T08:41:15;20.40;46.60
32293;DHT22;43233;48.608;8.838;2023-06-24T08:43:40;20.50;48.00
32293;DHT22;43233;48.608;8.838;2023-06-24T08:49:30;20.80;45.90
32293;DHT22;43233;48.608;8.838;2023-06-24T08:52:16;20.90;45.50
32293;DHT22;43233;48.608;8.838;2023-06-24T08:54:46;21.00;45.00
32293;DHT22;43233;48.608;8.838;2023-06-24T08:57:13;21.00;44.90
32293;DHT22;43233;48.608;8.838;2023-06-24T08:59:41;21.10;44.30
32293;DHT22;43233;48.608;8.838;2023-06-24T09:02:07;21.10;43.70
32293;DHT22;43233;48.608;8.838;2023-06-24T09:04:33;21.20;43.00
32293;DHT22;43233;48.608;8.838;2023-06-24T09:06:59;21.30;41.90
32293;DHT22;43233;48.608;8.838;2023-06-24T09:09:24;21.30;42.90
32293;DHT22;43233;48.608;8.838;2023-06-24T09:11:58;21.30;42.60
32293;DHT22;43233;48.608;8.838;2023-06-24T09:14:25;21.40;42.60
32293;DHT22;43233;48.608;8.838;2023-06-24T09:16:57;21.50;41.30
32293;DHT22;43233;48.608;8.838;2023-06-24T09:19:24;21.60;41.20
32293;DHT22;43233;48.608;8.838;2023-06-24T09:21:50;21.70;40.30
32293;DHT22;43233;48.608;8.838;2023-06-24T09:24:18;21.70;39.10
32293;DHT22;43233;48.608;8.838;2023-06-24T09:26:44;21.70;40.20
32293;DHT22;43233;48.608;8.838;2023-06-24T09:29:13;21.70;39.60
32293;DHT22;43233;48.608;8.838;2023-06-24T09:31:49;21.70;40.40
32293;DHT22;43233;48.608;8.838;2023-06-24T09:34:16;21.80;39.90
32293;DHT22;43233;48.608;8.838;2023-06-24T09:36:43;21.90;38.50
32293;DHT22;43233;48.608;8.838;2023-06-24T09:39:09;21.90;37.70
32293;DHT22;43233;48.608;8.838;2023-06-24T09:41:35;22.00;38.40
32293;DHT22;43233;48.608;8.838;2023-06-24T09:44:02;22.10;38.70
32293;DHT22;43233;48.608;8.838;2023-06-24T09:46:30;22.20;38.80
32293;DHT22;43233;48.608;8.838;2023-06-24T09:48:55;22.40;38.50
32293;DHT22;43233;48.608;8.838;2023-06-24T09:51:22;22.60;35.90
32293;DHT22;43233;48.608;8.838;2023-06-24T09:53:51;22.60;37.20
32293;DHT22;43233;48.608;8.838;2023-06-24T09:56:20;22.70;38.00
32293;DHT22;43233;48.608;8.838;2023-06-24T09:58:46;22.80;37.50
32293;DHT22;43233;48.608;8.838;2023-06-24T10:01:12;23.00;37.70
32293;DHT22;43233;48.608;8.838;2023-06-24T10:03:39;23.20;36.90
32293;DHT22;43233;48.608;8.838;2023-06-24T10:06:05;23.30;36.90
32293;DHT22;43233;48.608;8.838;2023-06-24T10:08:32;23.50;35.50
32293;DHT22;43233;48.608;8.838;2023-06-24T10:10:59;23.50;34.60
32293;DHT22;43233;48.608;8.838;2023-06-24T10:13:25;23.60;31.90
32293;DHT22;43233;48.608;8.838;2023-06-24T10:15:51;23.50;32.80
32293;DHT22;43233;48.608;8.838;2023-06-24T10:18:44;23.50;32.20
32293;DHT22;43233;48.608;8.838;2023-06-24T10:21:10;23.50;32.90
32293;DHT22;43233;48.608;8.838;2023-06-24T10:23:51;23.60;32.70
32293;DHT22;43233;48.608;8.838;2023-06-24T10:26:28;23.70;32.80
32293;DHT22;43233;48.608;8.838;2023-06-24T10:39:39;24.20;31.60
32293;DHT22;43233;48.608;8.838;2023-06-24T10:42:27;24.30;31.70
32293;DHT22;43233;48.608;8.838;2023-06-24T10:44:57;24.50;30.70
32293;DHT22;43233;48.608;8.838;2023-06-24T10:47:25;24.50;30.80
32293;DHT22;43233;48.608;8.838;2023-06-24T10:49:50;24.60;29.70
32293;DHT22;43233;48.608;8.838;2023-06-24T10:52:19;24.60;30.60
32293;DHT22;43233;48.608;8.838;2023-06-24T10:54:46;24.70;30.10
32293;DHT22;43233;48.608;8.838;2023-06-24T10:57:12;24.70;29.40
32293;DHT22;43233;48.608;8.838;2023-06-24T10:59:42;24.60;28.80
32293;DHT22;43233;48.608;8.838;2023-06-24T11:02:09;24.70;29.40
32293;DHT22;43233;48.608;8.838;2023-06-24T11:04:51;24.80;28.70
32293;DHT22;43233;48.608;8.838;2023-06-24T11:07:27;24.80;28.00
32293;DHT22;43233;48.608;8.838;2023-06-24T11:10:13;24.90;28.50
32293;DHT22;43233;48.608;8.838;2023-06-24T11:12:41;24.90;28.20
32293;DHT22;43233;48.608;8.838;2023-06-24T11:15:08;24.90;27.10
32293;DHT22;43233;48.608;8.838;2023-06-24T11:17:35;24.90;28.50
32293;DHT22;43233;48.608;8.838;2023-06-24T11:20:02;24.90;30.10
32293;DHT22;43233;48.608;8.838;2023-06-24T11:22:31;25.10;30.60
32293;DHT22;43233;48.608;8.838;2023-06-24T11:24:57;25.40;28.60
32293;DHT22;43233;48.608;8.838;2023-06-24T11:27:27;25.50;27.30
32293;DHT22;43233;48.608;8.838;2023-06-24T11:29:54;25.70;25.80
32293;DHT22;43233;48.608;8.838;2023-06-24T11:32:20;25.80;26.80
32293;DHT22;43233;48.608;8.838;2023-06-24T11:34:46;25.90;26.60
32293;DHT22;43233;48.608;8.838;2023-06-24T11:37:14;25.90;27.80
32293;DHT22;43233;48.608;8.838;2023-06-24T11:39:40;26.10;28.50
32293;DHT22;43233;48.608;8.838;2023-06-24T11:42:09;26.20;27.10
32293;DHT22;43233;48.608;8.838;2023-06-24T11:44:40;26.20;27.10
32293;DHT22;43233;48.608;8.838;2023-06-24T11:47:07;26.30;26.70
32293;DHT22;43233;48.608;8.838;2023-06-24T11:49:52;26.40;25.00
32293;DHT22;43233;48.608;8.838;2023-06-24T11:52:19;26.40;24.50
32293;DHT22;43233;48.608;8.838;2023-06-24T11:54:45;26.40;25.00
32293;DHT22;43233;48.608;8.838;2023-06-24T11:57:11;26.40;25.80
32293;DHT22;43233;48.608;8.838;2023-06-24T11:59:38;26.50;25.10
32293;DHT22;43233;48.608;8.838;2023-06-24T12:02:04;26.60;23.60
32293;DHT22;43233;48.608;8.838;2023-06-24T12:04:33;26.60;23.60
32293;DHT22;43233;48.608;8.838;2023-06-24T12:06:59;26.70;25.70
32293;DHT22;43233;48.608;8.838;2023-06-24T12:09:25;26.80;24.90
32293;DHT22;43233;48.608;8.838;2023-06-24T12:11:51;26.80;23.50
32293;DHT22;43233;48.608;8.838;2023-06-24T12:14:17;26.90;23.60
32293;DHT22;43233;48.608;8.838;2023-06-24T12:16:43;26.90;24.10
32293;DHT22;43233;48.608;8.838;2023-06-24T12:19:09;26.90;24.30
32293;DHT22;43233;48.608;8.838;2023-06-24T12:21:35;27.00;23.60
32293;DHT22;43233;48.608;8.838;2023-06-24T12:24:02;27.10;24.40
32293;DHT22;43233;48.608;8.838;2023-06-24T12:26:27;27.20;23.70
32293;DHT22;43233;48.608;8.838;2023-06-24T12:28:56;27.30;23.80
32293;DHT22;43233;48.608;8.838;2023-06-24T12:31:23;27.40;23.10
32293;DHT22;43233;48.608;8.838;2023-06-24T12:33:49;27.40;22.90
32293;DHT22;43233;48.608;8.838;2023-06-24T12:36:15;27.40;23.20
32293;DHT22;43233;48.608;8.838;2023-06-24T12:38:41;27.50;24.40
32293;DHT22;43233;48.608;8.838;2023-06-24T12:41:06;27.60;24.00
32293;DHT22;43233;48.608;8.838;2023-06-24T12:43:32;27.80;23.30
32293;DHT22;43233;48.608;8.838;2023-06-24T12:45:58;27.80;23.40
32293;DHT22;43233;48.608;8.838;2023-06-24T12:48:24;28.00;24.30
32293;DHT22;43233;48.608;8.838;2023-06-24T12:50:49;28.00;24.00
32293;DHT22;43233;48.608;8.838;2023-06-24T12:53:19;28.10;22.90
32293;DHT22;43233;48.608;8.838;2023-06-24T12:55:44;28.20;23.10
32293;DHT22;43233;48.608;8.838;2023-06-24T12:58:10;28.20;22.20
32293;DHT22;43233;48.608;8.838;2023-06-24T13:00:35;28.30;22.30
32293;DHT22;43233;48.608;8.838;2023-06-24T13:03:01;28.30;22.10
32293;DHT22;43233;48.608;8.838;2023-06-24T13:05:27;28.30;22.10
32293;DHT22;43233;48.608;8.838;2023-06-24T13:07:52;28.30;21.80
32293;DHT22;43233;48.608;8.838;2023-06-24T13:10:18;28.40;22.00
32293;DHT22;43233;48.608;8.838;2023-06-24T13:12:43;28.30;20.60
32293;DHT22;43233;48.608;8.838;2023-06-24T13:15:09;28.10;21.00
32293;DHT22;43233;48.608;8.838;2023-06-24T13:17:35;28.10;22.20
32293;DHT22;43233;48.608;8.838;2023-06-24T13:20:02;28.10;25.70
32293;DHT22;43233;48.608;8.838;2023-06-24T13:22:29;28.20;22.70
32293;DHT22;43233;48.608;8.838;2023-06-24T13:24:55;28.30;23.50
32293;DHT22;43233;48.608;8.838;2023-06-24T13:27:21;28.30;24.60
32293;DHT22;43233;48.608;8.838;2023-06-24T13:29:47;28.40;20.90
32293;DHT22;43233;48.608;8.838;2023-06-24T13:32:13;28.50;21.10
32293;DHT22;43233;48.608;8.838;2023-06-24T13:34:38;28.60;20.50
32293;DHT22;43233;48.608;8.838;2023-06-24T13:37:04;28.50;19.40
32293;DHT22;43233;48.608;8.838;2023-06-24T13:39:30;28.50;20.00
32293;DHT22;43233;48.608;8.838;2023-06-24T13:41:56;28.60;21.10
32293;DHT22;43233;48.608;8.838;2023-06-24T13:44:22;28.60;20.80
32293;DHT22;43233;48.608;8.838;2023-06-24T13:46:49;28.70;19.80
32293;DHT22;43233;48.608;8.838;2023-06-24T13:49:15;28.80;20.10
32293;DHT22;43233;48.608;8.838;2023-06-24T13:51:41;29.00;21.00
32293;DHT22;43233;48.608;8.838;2023-06-24T13:54:07;29.00;20.20
32293;DHT22;43233;48.608;8.838;2023-06-24T13:56:33;29.10;20.00
32293;DHT22;43233;48.608;8.838;2023-06-24T13:58:59;29.20;19.50
32293;DHT22;43233;48.608;8.838;2023-06-24T14:01:25;29.20;19.30
32293;DHT22;43233;48.608;8.838;2023-06-24T14:03:54;29.20;19.10
32293;DHT22;43233;48.608;8.838;2023-06-24T14:06:21;29.30;18.20
32293;DHT22;43233;48.608;8.838;2023-06-24T14:08:48;29.30;18.90
32293;DHT22;43233;48.608;8.838;2023-06-24T14:11:14;29.30;19.90
32293;DHT22;43233;48.608;8.838;2023-06-24T14:13:40;29.30;19.50
32293;DHT22;43233;48.608;8.838;2023-06-24T14:16:06;29.30;20.40
32293;DHT22;43233;48.608;8.838;2023-06-24T14:18:32;29.50;20.90
32293;DHT22;43233;48.608;8.838;2023-06-24T14:20:59;29.50;20.70
32293;DHT22;43233;48.608;8.838;2023-06-24T14:23:25;29.60;21.40
32293;DHT22;43233;48.608;8.838;2023-06-24T14:25:51;29.70;29.10
32293;DHT22;43233;48.608;8.838;2023-06-24T14:28:17;29.70;23.00
32293;DHT22;43233;48.608;8.838;2023-06-24T14:30:43;29.70;19.40
32293;DHT22;43233;48.608;8.838;2023-06-24T14:33:09;29.70;19.10
32293;DHT22;43233;48.608;8.838;2023-06-24T14:35:35;29.70;19.10
32293;DHT22;43233;48.608;8.838;2023-06-24T14:38:00;29.70;19.10
32293;DHT22;43233;48.608;8.838;2023-06-24T14:40:26;29.70;18.90
32293;DHT22;43233;48.608;8.838;2023-06-24T14:42:51;29.60;19.30
32293;DHT22;43233;48.608;8.838;2023-06-24T14:45:17;29.70;19.10
32293;DHT22;43233;48.608;8.838;2023-06-24T14:47:42;29.80;18.30
32293;DHT22;43233;48.608;8.838;2023-06-24T14:50:08;29.70;18.80
32293;DHT22;43233;48.608;8.838;2023-06-24T14:52:34;29.70;18.30
32293;DHT22;43233;48.608;8.838;2023-06-24T14:55:00;29.60;19.20
32293;DHT22;43233;48.608;8.838;2023-06-24T14:57:25;29.60;18.30
32293;DHT22;43233;48.608;8.838;2023-06-24T14:59:51;29.60;18.30
32293;DHT22;43233;48.608;8.838;2023-06-24T15:02:17;29.60;18.30
32293;DHT22;43233;48.608;8.838;2023-06-24T15:04:43;29.70;18.20
32293;DHT22;43233;48.608;8.838;2023-06-24T15:07:09;29.50;18.70
32293;DHT22;43233;48.608;8.838;2023-06-24T15:09:34;29.60;19.00
32293;DHT22;43233;48.608;8.838;2023-06-24T15:12:01;29.50;18.30
32293;DHT22;43233;48.608;8.838;2023-06-24T15:14:27;29.50;18.40
32293;DHT22;43233;48.608;8.838;2023-06-24T15:16:52;29.40;18.60
32293;DHT22;43233;48.608;8.838;2023-06-24T15:19:19;29.40;18.70
32293;DHT22;43233;48.608;8.838;2023-06-24T15:21:45;29.40;19.40
32293;DHT22;43233;48.608;8.838;2023-06-24T15:24:10;29.40;18.90
32293;DHT22;43233;48.608;8.838;2023-06-24T15:26:36;29.40;18.80
32293;DHT22;43233;48.608;8.838;2023-06-24T15:29:02;29.40;18.40
32293;DHT22;43233;48.608;8.838;2023-06-24T15:31:27;29.30;18.60
32293;DHT22;43233;48.608;8.838;2023-06-24T15:33:53;29.30;18.90
32293;DHT22;43233;48.608;8.838;2023-06-24T15:36:19;29.30;19.60
32293;DHT22;43233;48.608;8.838;2023-06-24T15:38:47;29.20;20.20
32293;DHT22;43233;48.608;8.838;2023-06-24T15:41:13;29.30;21.30
32293;DHT22;43233;48.608;8.838;2023-06-24T15:43:39;29.20;21.30
32293;DHT22;43233;48.608;8.838;2023-06-24T15:46:05;29.10;20.70
32293;DHT22;43233;48.608;8.838;2023-06-24T15:48:31;29.10;20.40
32293;DHT22;43233;48.608;8.838;2023-06-24T15:50:57;29.00;20.50